createdAt,value
2018-12-01T00:00:40.737Z,57.60
2018-12-01T00:03:08.594Z,62.20
2018-12-01T00:05:36.488Z,59.30
2018-12-01T00:08:04.501Z,59.83
2018-12-01T00:10:32.351Z,73.10
2018-12-01T00:13:00.196Z,73.07
2018-12-01T00:15:28.591Z,72.10
2018-12-01T00:17:56.555Z,68.63
2018-12-01T00:20:24.963Z,56.87
2018-12-01T00:22:52.811Z,71.00
2018-12-01T00:25:20.795Z,68.53
2018-12-01T00:27:48.639Z,74.83
2018-12-01T00:30:16.848Z,82.30
2018-12-01T00:32:45.252Z,77.20
2018-12-01T00:35:13.179Z,73.57
2018-12-01T00:37:41.040Z,63.87
2018-12-01T00:40:13.395Z,67.03
2018-12-01T00:42:41.240Z,70.27
2018-12-01T00:45:09.724Z,65.83
2018-12-01T00:47:37.588Z,67.57
2018-12-01T00:50:07.020Z,66.60
2018-12-01T00:52:34.904Z,65.70
2018-12-01T00:55:02.768Z,62.27
2018-12-01T00:57:30.640Z,64.47
2018-12-01T00:59:58.477Z,63.33
2018-12-01T01:02:31.884Z,72.23
2018-12-01T01:04:59.759Z,63.13
2018-12-01T01:07:27.620Z,61.43
2018-12-01T01:09:55.520Z,58.97
2018-12-01T01:12:23.368Z,65.97
2018-12-01T01:14:51.267Z,59.30
2018-12-01T01:17:19.116Z,68.57
2018-12-01T01:19:46.987Z,56.60
2018-12-01T01:22:14.824Z,59.63
2018-12-01T01:24:42.664Z,55.43
2018-12-01T01:27:10.536Z,54.43
2018-12-01T01:29:38.378Z,59.07
2018-12-01T01:32:06.225Z,74.83
2018-12-01T01:34:34.127Z,55.30
2018-12-01T01:37:01.979Z,52.97
2018-12-01T01:39:29.811Z,55.13
2018-12-01T01:41:57.685Z,61.80
2018-12-01T01:44:25.543Z,57.47
2018-12-01T01:46:53.392Z,53.07
2018-12-01T01:49:21.242Z,58.73
2018-12-01T01:51:49.079Z,53.90
2018-12-01T01:54:16.964Z,53.07
2018-12-01T01:56:44.841Z,55.23
2018-12-01T01:59:12.668Z,52.10
2018-12-01T02:01:40.523Z,52.83
2018-12-01T02:04:08.395Z,50.27
2018-12-01T02:06:36.256Z,59.10
2018-12-01T02:09:05.734Z,51.03
2018-12-01T02:11:33.587Z,48.77
2018-12-01T02:14:01.424Z,56.30
2018-12-01T02:16:29.271Z,64.23
2018-12-01T02:18:57.099Z,54.53
2018-12-01T02:21:25.364Z,55.23
2018-12-01T02:23:53.408Z,52.50
2018-12-01T02:26:21.239Z,51.93
2018-12-01T02:28:49.088Z,54.10
2018-12-01T02:31:16.929Z,51.90
2018-12-01T02:33:44.776Z,52.30
2018-12-01T02:36:12.611Z,53.50
2018-12-01T02:38:40.464Z,50.17
2018-12-01T02:41:08.293Z,50.40
2018-12-01T02:43:36.202Z,48.73
2018-12-01T02:46:09.736Z,49.17
2018-12-01T02:48:37.601Z,53.47
2018-12-01T02:51:05.477Z,50.93
2018-12-01T02:53:33.353Z,50.70
2018-12-01T02:56:01.203Z,52.50
2018-12-01T02:58:29.070Z,56.63
2018-12-01T03:00:56.921Z,50.47
2018-12-01T03:03:24.787Z,51.13
2018-12-01T03:05:52.643Z,55.43
2018-12-01T03:08:20.507Z,59.53
2018-12-01T03:10:48.419Z,48.23
2018-12-01T03:13:16.260Z,51.30
2018-12-01T03:15:44.113Z,56.90
2018-12-01T03:18:13.698Z,52.50
2018-12-01T03:20:39.873Z,52.70
2018-12-01T03:23:07.736Z,54.20
2018-12-01T03:25:35.687Z,51.83
2018-12-01T03:28:03.549Z,51.23
2018-12-01T03:30:31.464Z,53.87
2018-12-01T03:32:59.336Z,51.83
2018-12-01T03:35:27.209Z,56.03
2018-12-01T03:37:55.094Z,52.40
2018-12-01T03:40:22.984Z,56.70
2018-12-01T03:42:51.332Z,53.67
2018-12-01T03:45:19.727Z,54.73
2018-12-01T03:47:47.591Z,49.37
2018-12-01T03:50:19.973Z,53.23
2018-12-01T03:52:48.091Z,49.67
2018-12-01T03:55:35.657Z,50.80
2018-12-01T03:58:03.536Z,57.50
2018-12-01T04:00:33.126Z,60.60
2018-12-01T04:03:01.440Z,54.47
2018-12-01T04:05:29.369Z,51.93
2018-12-01T04:07:57.234Z,52.30
2018-12-01T04:10:25.089Z,52.53
2018-12-01T04:12:53.500Z,57.40
2018-12-01T04:15:21.354Z,55.17
2018-12-01T04:17:49.259Z,50.50
2018-12-01T04:20:17.122Z,52.93
2018-12-01T04:22:45.009Z,49.50
2018-12-01T04:25:12.881Z,54.37
2018-12-01T04:27:40.787Z,52.07
2018-12-01T04:30:15.265Z,53.83
2018-12-01T04:32:43.145Z,54.13
2018-12-01T04:35:15.621Z,51.33
2018-12-01T04:37:43.750Z,48.73
2018-12-01T04:40:11.628Z,48.43
2018-12-01T04:42:39.481Z,46.10
2018-12-01T04:45:07.594Z,52.10
2018-12-01T04:47:35.454Z,47.07
2018-12-01T04:50:03.334Z,49.13
2018-12-01T04:52:31.180Z,45.27
2018-12-01T04:54:59.073Z,45.57
2018-12-01T04:57:27.004Z,45.00
2018-12-01T04:59:54.889Z,46.00
2018-12-01T05:02:22.812Z,42.63
2018-12-01T05:04:50.685Z,43.73
2018-12-01T05:07:18.548Z,47.40
2018-12-01T05:09:46.910Z,44.87
2018-12-01T05:12:14.795Z,42.70
2018-12-01T05:14:42.671Z,44.93
2018-12-01T05:17:10.564Z,44.23
2018-12-01T05:19:38.430Z,42.47
2018-12-01T05:22:06.309Z,42.33
2018-12-01T05:24:34.173Z,40.03
2018-12-01T05:27:02.057Z,42.23
2018-12-01T05:29:29.922Z,40.33
2018-12-01T05:31:57.781Z,40.93
2018-12-01T05:34:25.668Z,47.93
2018-12-01T05:36:53.520Z,44.33
2018-12-01T05:39:21.385Z,51.97
2018-12-01T05:41:49.224Z,48.97
2018-12-01T05:44:17.099Z,52.43
2018-12-01T05:46:44.972Z,57.03
2018-12-01T05:49:12.844Z,50.27
2018-12-01T05:51:40.700Z,50.97
2018-12-01T05:54:08.575Z,56.03
2018-12-01T05:56:36.437Z,53.80
2018-12-01T05:59:04.317Z,56.07
2018-12-01T06:01:32.275Z,51.53
2018-12-01T06:04:00.147Z,51.27
2018-12-01T06:06:28.016Z,52.60
2018-12-01T06:08:55.884Z,58.63
2018-12-01T06:11:23.750Z,59.13
2018-12-01T06:13:51.615Z,56.80
2018-12-01T06:16:19.483Z,63.90
2018-12-01T06:18:47.368Z,61.03
2018-12-01T06:21:15.226Z,55.83
2018-12-01T06:23:43.082Z,53.27
2018-12-01T06:26:10.964Z,58.33
2018-12-01T06:28:38.821Z,55.60
2018-12-01T06:31:06.688Z,60.87
2018-12-01T06:33:34.533Z,61.67
2018-12-01T06:36:02.391Z,63.83
2018-12-01T06:38:30.253Z,62.93
2018-12-01T06:40:58.148Z,55.83
2018-12-01T06:43:25.995Z,52.70
2018-12-01T06:45:53.858Z,53.13
2018-12-01T06:48:21.717Z,51.27
2018-12-01T06:50:49.581Z,59.77
2018-12-01T06:53:17.441Z,53.03
2018-12-01T06:55:45.302Z,61.23
2018-12-01T06:58:13.622Z,55.93
2018-12-01T07:00:41.565Z,59.07
2018-12-01T07:03:09.457Z,56.23
2018-12-01T07:05:37.303Z,59.13
2018-12-01T07:08:05.161Z,58.67
2018-12-01T07:10:33.035Z,58.33
2018-12-01T07:13:01.524Z,55.87
2018-12-01T07:15:33.119Z,56.83
2018-12-01T07:18:00.968Z,60.60
2018-12-01T07:20:28.869Z,54.67
2018-12-01T07:22:56.727Z,57.33
2018-12-01T07:25:24.572Z,56.97
2018-12-01T07:27:52.800Z,57.07
2018-12-01T07:30:21.232Z,55.13
2018-12-01T07:32:50.762Z,56.23
2018-12-01T07:35:18.789Z,52.70
2018-12-01T07:37:46.717Z,57.63
2018-12-01T07:40:15.347Z,58.10
2018-12-01T07:42:43.220Z,54.83
2018-12-01T07:45:11.800Z,56.57
2018-12-01T07:47:39.657Z,55.73
2018-12-01T07:50:12.118Z,61.63
2018-12-01T07:52:40.097Z,66.23
2018-12-01T07:55:08.020Z,69.43
2018-12-01T07:57:35.969Z,66.87
2018-12-01T08:00:05.320Z,67.27
2018-12-01T08:02:33.328Z,71.57
2018-12-01T08:05:01.228Z,63.60
2018-12-01T08:07:29.108Z,70.30
2018-12-01T08:09:56.981Z,84.50
2018-12-01T08:12:24.953Z,88.13
2018-12-01T08:14:52.808Z,83.93
2018-12-01T08:17:20.704Z,74.23
2018-12-01T08:19:48.569Z,71.83
2018-12-01T08:22:16.525Z,67.63
2018-12-01T08:24:44.535Z,64.43
2018-12-01T08:27:12.835Z,62.70
2018-12-01T08:29:41.265Z,60.87
2018-12-01T08:32:09.237Z,60.77
2018-12-01T08:34:37.168Z,65.60
2018-12-01T08:37:05.518Z,72.60
2018-12-01T08:39:33.374Z,86.77
2018-12-01T08:42:01.248Z,101.27
2018-12-01T08:44:29.290Z,100.80
2018-12-01T08:46:57.359Z,103.93
2018-12-01T08:49:25.261Z,91.00
2018-12-01T08:51:53.133Z,87.10
2018-12-01T08:54:20.990Z,84.30
2018-12-01T08:56:48.842Z,90.27
2018-12-01T08:59:16.681Z,77.83
2018-12-01T09:01:44.517Z,76.13
2018-12-01T09:04:12.378Z,79.63
2018-12-01T09:06:40.258Z,80.73
2018-12-01T09:09:08.141Z,81.87
2018-12-01T09:11:35.995Z,93.87
2018-12-01T09:14:03.882Z,93.87
2018-12-01T09:16:32.084Z,96.00
2018-12-01T09:19:00.407Z,103.33
2018-12-01T09:21:28.258Z,88.80
2018-12-01T09:23:57.230Z,78.97
2018-12-01T09:26:25.074Z,68.07
2018-12-01T09:28:52.926Z,73.47
2018-12-01T09:31:20.777Z,68.23
2018-12-01T09:33:48.661Z,75.07
2018-12-01T09:36:16.631Z,69.43
2018-12-01T09:38:44.577Z,62.40
2018-12-01T09:41:12.448Z,68.57
2018-12-01T09:43:40.340Z,66.27
2018-12-01T09:46:08.241Z,69.73
2018-12-01T09:48:36.104Z,72.07
2018-12-01T09:51:04.010Z,68.43
2018-12-01T09:53:31.889Z,78.00
2018-12-01T09:55:59.742Z,71.60
2018-12-01T09:58:27.742Z,79.77
2018-12-01T10:00:55.692Z,77.43
2018-12-01T10:03:23.719Z,89.27
2018-12-01T10:05:51.607Z,70.23
2018-12-01T10:08:19.585Z,65.27
2018-12-01T10:10:47.444Z,55.50
2018-12-01T10:13:15.424Z,56.90
2018-12-01T10:15:43.347Z,58.53
2018-12-01T10:18:11.253Z,58.23
2018-12-01T10:20:39.242Z,69.30
2018-12-01T10:23:08.729Z,70.63
2018-12-01T10:25:36.613Z,90.90
2018-12-01T10:28:04.530Z,119.63
2018-12-01T10:30:32.392Z,104.80
2018-12-01T10:33:00.295Z,97.40
2018-12-01T10:35:28.159Z,76.10
2018-12-01T10:37:57.805Z,74.83
2018-12-01T10:40:25.800Z,94.50
2018-12-01T10:42:53.763Z,104.00
2018-12-01T10:45:21.823Z,103.33
2018-12-01T10:47:49.667Z,83.37
2018-12-01T10:50:20.641Z,78.90
2018-12-01T10:52:49.833Z,85.40
2018-12-01T10:55:19.563Z,66.10
2018-12-01T10:57:47.417Z,90.17
2018-12-01T11:00:20.842Z,99.67
2018-12-01T11:02:55.719Z,95.77
2018-12-01T11:05:21.981Z,112.43
2018-12-01T11:07:49.819Z,75.33
2018-12-01T11:10:17.738Z,73.37
2018-12-01T11:12:45.593Z,79.90
2018-12-01T11:15:13.482Z,74.13
2018-12-01T11:17:41.342Z,64.73
2018-12-01T11:20:09.654Z,71.07
2018-12-01T11:22:37.602Z,76.47
2018-12-01T11:25:06.708Z,82.90
2018-12-01T11:27:34.892Z,71.90
2018-12-01T11:30:03.207Z,69.70
2018-12-01T11:32:31.070Z,86.03
2018-12-01T11:34:58.921Z,68.57
2018-12-01T11:37:26.797Z,68.67
2018-12-01T11:39:54.646Z,63.50
2018-12-01T11:42:22.489Z,76.67
2018-12-01T11:44:50.345Z,73.23
2018-12-01T11:47:18.211Z,88.47
2018-12-01T11:49:46.080Z,99.73
2018-12-01T11:52:13.962Z,133.33
2018-12-01T11:54:41.812Z,162.40
2018-12-01T11:57:09.660Z,193.03
2018-12-01T11:59:37.518Z,127.60
2018-12-01T12:02:05.725Z,155.23
2018-12-01T12:04:33.590Z,106.87
2018-12-01T12:07:01.433Z,107.63
2018-12-01T12:09:29.308Z,171.00
2018-12-01T12:11:57.185Z,254.27
2018-12-01T12:14:25.050Z,221.93
2018-12-01T12:16:52.930Z,228.30
2018-12-01T12:19:20.805Z,210.83
2018-12-01T12:21:48.662Z,171.33
2018-12-01T12:24:16.508Z,382.40
2018-12-01T12:26:44.354Z,450.63
2018-12-01T12:29:12.222Z,541.07
2018-12-01T12:31:40.089Z,670.23
2018-12-01T12:34:07.963Z,807.83
2018-12-01T12:36:35.854Z,614.23
2018-12-01T12:39:04.769Z,658.60
2018-12-01T12:41:32.645Z,543.13
2018-12-01T12:44:00.502Z,531.53
2018-12-01T12:46:28.372Z,527.67
2018-12-01T12:48:56.223Z,553.60
2018-12-01T12:51:24.085Z,575.47
2018-12-01T12:53:51.949Z,637.17
2018-12-01T12:56:19.812Z,599.47
2018-12-01T12:58:47.739Z,670.23
2018-12-01T13:01:15.607Z,597.23
2018-12-01T13:03:43.489Z,603.97
2018-12-01T13:06:11.365Z,575.70
2018-12-01T13:08:39.253Z,560.03
2018-12-01T13:11:07.126Z,528.53
2018-12-01T13:13:35.022Z,597.43
2018-12-01T13:16:02.914Z,599.13
2018-12-01T13:18:30.775Z,592.00
2018-12-01T13:20:58.673Z,654.53
2018-12-01T13:23:26.596Z,706.77
2018-12-01T13:25:54.562Z,640.77
2018-12-01T13:28:23.767Z,743.90
2018-12-01T13:30:56.653Z,750.90
2018-12-01T13:33:24.785Z,760.40
2018-12-01T13:35:52.686Z,971.27
2018-12-01T13:38:20.561Z,994.77
2018-12-01T13:40:48.429Z,969.27
2018-12-01T13:43:16.392Z,968.87
2018-12-01T13:45:44.312Z,967.27
2018-12-01T13:48:12.195Z,986.70
2018-12-01T13:50:40.065Z,993.77
2018-12-01T13:53:08.851Z,999.90
2018-12-01T13:55:36.748Z,999.90
2018-12-01T13:58:04.793Z,999.90
2018-12-01T14:00:32.734Z,999.90
2018-12-01T14:03:00.633Z,999.90
2018-12-01T14:05:28.497Z,999.90
2018-12-01T14:07:56.414Z,969.03
2018-12-01T14:10:26.867Z,999.90
2018-12-01T14:12:59.252Z,984.83
2018-12-01T14:15:27.110Z,968.13
2018-12-01T14:17:54.987Z,999.53
2018-12-01T14:20:22.861Z,990.67
2018-12-01T14:22:50.726Z,969.67
2018-12-01T14:25:19.220Z,999.90
2018-12-01T14:27:48.617Z,999.90
2018-12-01T14:30:16.629Z,960.23
2018-12-01T14:32:44.666Z,973.20
2018-12-01T14:35:14.046Z,919.50
2018-12-01T14:37:41.981Z,992.30
2018-12-01T14:40:10.505Z,972.80
2018-12-01T14:42:38.377Z,978.60
2018-12-01T14:45:07.472Z,991.57
2018-12-01T14:47:35.334Z,995.93
2018-12-01T14:50:03.224Z,988.70
2018-12-01T14:52:31.085Z,999.90
2018-12-01T14:54:59.000Z,999.90
2018-12-01T14:57:26.861Z,999.90
2018-12-01T14:59:54.730Z,999.90
2018-12-01T15:02:22.651Z,999.90
2018-12-01T15:04:50.513Z,999.90
2018-12-01T15:07:18.401Z,999.90
2018-12-01T15:09:46.273Z,999.90
2018-12-01T15:12:14.161Z,999.90
2018-12-01T15:14:42.028Z,999.90
2018-12-01T15:17:09.934Z,999.90
2018-12-01T15:19:37.794Z,999.90
2018-12-01T15:22:05.657Z,999.90
2018-12-01T15:24:33.553Z,999.90
2018-12-01T15:27:02.028Z,999.90
2018-12-01T15:29:29.309Z,999.90
2018-12-01T15:31:57.220Z,999.90
2018-12-01T15:34:25.095Z,999.90
2018-12-01T15:36:52.969Z,999.90
2018-12-01T15:39:25.161Z,999.90
2018-12-01T15:41:53.076Z,999.90
2018-12-01T15:44:20.969Z,999.90
2018-12-01T15:46:48.855Z,999.90
2018-12-01T15:49:16.718Z,999.90
2018-12-01T15:51:44.589Z,999.90
2018-12-01T15:54:12.468Z,928.80
2018-12-01T15:56:40.334Z,999.90
2018-12-01T15:59:08.246Z,999.90
2018-12-01T16:01:36.161Z,999.90
2018-12-01T16:04:04.072Z,999.90
2018-12-01T16:06:31.964Z,999.90
2018-12-01T16:08:59.837Z,990.87
2018-12-01T16:11:27.700Z,999.90
2018-12-01T16:13:55.600Z,971.47
2018-12-01T16:16:23.546Z,999.90
2018-12-01T16:18:51.437Z,999.90
2018-12-01T16:21:19.416Z,999.90
2018-12-01T16:23:47.293Z,999.90
2018-12-01T16:26:15.214Z,999.90
2018-12-01T16:28:43.121Z,999.90
2018-12-01T16:31:11.009Z,999.90
2018-12-01T16:33:38.944Z,999.90
2018-12-01T16:36:06.805Z,999.90
2018-12-01T16:38:35.057Z,971.33
2018-12-01T16:41:08.867Z,999.90
2018-12-01T16:43:36.804Z,999.90
2018-12-01T16:46:04.697Z,999.90
2018-12-01T16:48:33.203Z,999.90
2018-12-01T16:51:00.489Z,999.90
2018-12-01T16:53:28.366Z,999.90
2018-12-01T16:55:56.233Z,999.90
2018-12-01T16:58:24.363Z,993.67
2018-12-01T17:00:52.234Z,999.90
2018-12-01T17:03:20.121Z,999.90
2018-12-01T17:05:53.052Z,999.90
2018-12-01T17:08:20.937Z,959.13
2018-12-01T17:10:48.830Z,985.57
2018-12-01T17:13:16.697Z,932.30
2018-12-01T17:15:44.557Z,985.50
2018-12-01T17:18:12.441Z,999.90
2018-12-01T17:20:40.338Z,797.07
2018-12-01T17:23:11.207Z,891.23
2018-12-01T17:25:39.180Z,856.43
2018-12-01T17:28:08.056Z,847.93
2018-12-01T17:30:35.919Z,938.50
2018-12-01T17:33:04.279Z,794.10
2018-12-01T17:35:32.200Z,814.10
2018-12-01T17:38:00.736Z,794.03
2018-12-01T17:40:30.772Z,950.80
2018-12-01T17:42:58.663Z,918.77
2018-12-01T17:45:26.530Z,782.90
2018-12-01T17:47:54.403Z,813.80
2018-12-01T17:50:22.256Z,923.13
2018-12-01T17:52:52.765Z,900.03
2018-12-01T17:55:20.785Z,926.27
2018-12-01T17:57:48.861Z,957.50
2018-12-01T18:00:19.198Z,890.37
2018-12-01T18:02:47.281Z,881.13
2018-12-01T18:05:19.158Z,945.37
2018-12-01T18:07:47.024Z,892.93
2018-12-01T18:10:14.912Z,907.47
2018-12-01T18:12:43.196Z,929.97
2018-12-01T18:15:11.709Z,936.07
2018-12-01T18:17:39.569Z,941.90
2018-12-01T18:20:14.501Z,962.47
2018-12-01T18:22:42.514Z,798.63
2018-12-01T18:25:10.382Z,819.70
2018-12-01T18:27:38.259Z,932.97
2018-12-01T18:30:08.881Z,999.27
2018-12-01T18:32:36.754Z,871.03
2018-12-01T18:35:04.765Z,999.90
2018-12-01T18:37:32.645Z,999.90
2018-12-01T18:40:00.515Z,929.70
2018-12-01T18:42:28.381Z,894.17
2018-12-01T18:44:56.249Z,938.10
2018-12-01T18:47:24.129Z,873.47
2018-12-01T18:49:51.985Z,999.90
2018-12-01T18:52:19.886Z,999.30
2018-12-01T18:54:47.744Z,999.90
2018-12-01T18:57:15.639Z,999.90
2018-12-01T18:59:43.505Z,999.90
2018-12-01T19:02:11.399Z,999.90
2018-12-01T19:04:39.270Z,999.90
2018-12-01T19:07:07.143Z,999.90
2018-12-01T19:09:34.991Z,999.90
2018-12-01T19:12:02.925Z,999.90
2018-12-01T19:14:30.786Z,999.90
2018-12-01T19:16:58.679Z,999.90
2018-12-01T19:19:26.545Z,999.90
2018-12-01T19:21:54.440Z,997.97
2018-12-01T19:24:22.294Z,999.90
2018-12-01T19:26:50.188Z,999.90
2018-12-01T19:29:18.037Z,912.77
2018-12-01T19:31:45.958Z,999.90
2018-12-01T19:34:13.813Z,968.30
2018-12-01T19:36:41.681Z,999.90
2018-12-01T19:39:09.629Z,968.23
2018-12-01T19:41:37.490Z,892.33
2018-12-01T19:44:05.349Z,946.40
2018-12-01T19:46:33.225Z,999.90
2018-12-01T19:49:01.081Z,842.90
2018-12-01T19:51:29.058Z,776.17
2018-12-01T19:53:57.013Z,988.70
2018-12-01T19:56:25.009Z,999.90
2018-12-01T19:58:52.945Z,999.90
2018-12-01T20:01:21.073Z,999.90
2018-12-01T20:03:48.723Z,999.90
2018-12-01T20:06:16.604Z,697.67
2018-12-01T20:08:44.529Z,999.90
2018-12-01T20:11:12.486Z,945.37
2018-12-01T20:13:41.853Z,903.50
2018-12-01T20:16:17.713Z,966.53
2018-12-01T20:18:45.660Z,999.30
2018-12-01T20:21:13.554Z,999.90
2018-12-01T20:23:41.500Z,972.87
2018-12-01T20:26:14.099Z,999.90
2018-12-01T20:28:43.302Z,878.43
2018-12-01T20:31:14.389Z,999.90
2018-12-01T20:33:48.095Z,999.90
2018-12-01T20:36:22.254Z,999.90
2018-12-01T20:38:59.204Z,999.90
2018-12-01T20:41:29.400Z,972.33
2018-12-01T20:43:58.565Z,787.60
2018-12-01T20:46:29.190Z,999.90
2018-12-01T20:48:57.528Z,999.90
2018-12-01T20:51:26.470Z,999.90
2018-12-01T20:53:56.887Z,999.33
2018-12-01T20:56:32.340Z,830.83
2018-12-01T20:59:01.865Z,999.90
2018-12-01T21:01:29.836Z,999.90
2018-12-01T21:03:57.696Z,999.90
2018-12-01T21:06:25.543Z,999.90
2018-12-01T21:08:53.422Z,946.13
2018-12-01T21:11:21.382Z,875.60
2018-12-01T21:13:49.273Z,999.90
2018-12-01T21:16:17.221Z,999.90
2018-12-01T21:18:45.114Z,999.90
2018-12-01T21:21:13.048Z,836.60
2018-12-01T21:23:40.906Z,934.83
2018-12-01T21:26:08.760Z,918.33
2018-12-01T21:28:36.661Z,813.30
2018-12-01T21:31:05.346Z,765.50
2018-12-01T21:33:34.452Z,822.47
2018-12-01T21:36:03.120Z,999.90
2018-12-01T21:38:31.022Z,994.00
2018-12-01T21:40:58.962Z,999.90
2018-12-01T21:43:26.826Z,948.73
2018-12-01T21:45:54.714Z,975.07
2018-12-01T21:48:22.682Z,999.90
2018-12-01T21:50:51.429Z,940.17
2018-12-01T21:53:20.218Z,999.90
2018-12-01T21:55:48.231Z,999.90
2018-12-01T21:58:16.098Z,912.87
2018-12-01T22:00:44.922Z,999.90
2018-12-01T22:03:13.284Z,965.87
2018-12-01T22:05:46.988Z,999.90
2018-12-01T22:08:15.167Z,999.90
2018-12-01T22:10:44.058Z,920.43
2018-12-01T22:13:11.966Z,999.90
2018-12-01T22:15:39.858Z,898.30
2018-12-01T22:18:07.740Z,999.90
2018-12-01T22:20:35.607Z,999.90
2018-12-01T22:23:03.553Z,916.67
2018-12-01T22:25:31.430Z,944.63
2018-12-01T22:27:59.301Z,816.83
2018-12-01T22:30:33.661Z,999.90
2018-12-01T22:33:01.515Z,999.90
2018-12-01T22:35:29.481Z,903.87
2018-12-01T22:37:57.817Z,812.40
2018-12-01T22:40:26.332Z,717.10
2018-12-01T22:42:54.936Z,999.90
2018-12-01T22:45:22.839Z,999.90
2018-12-01T22:47:50.708Z,955.27
2018-12-01T22:50:19.128Z,999.90
2018-12-01T22:52:47.158Z,999.90
2018-12-01T22:55:15.652Z,927.00
2018-12-01T22:57:44.308Z,999.90
2018-12-01T23:00:16.981Z,999.90
2018-12-01T23:02:44.845Z,913.67
2018-12-01T23:05:12.705Z,998.40
2018-12-01T23:07:40.569Z,996.17
2018-12-01T23:10:09.633Z,932.43
2018-12-01T23:12:37.902Z,999.90
2018-12-01T23:15:06.711Z,883.37
2018-12-01T23:17:34.621Z,999.90
2018-12-01T23:20:02.465Z,981.17
2018-12-01T23:22:30.312Z,999.90
2018-12-01T23:24:58.185Z,951.30
2018-12-01T23:29:59.147Z,999.90
2018-12-01T23:32:27.046Z,999.90
2018-12-01T23:34:54.952Z,943.67
2018-12-01T23:37:22.844Z,993.27
2018-12-01T23:39:50.758Z,999.90
2018-12-01T23:42:25.203Z,999.90
2018-12-01T23:44:53.099Z,999.90
2018-12-01T23:47:20.982Z,979.93
2018-12-01T23:49:48.915Z,971.37
2018-12-01T23:52:16.809Z,984.33
2018-12-01T23:54:44.717Z,999.90
2018-12-01T23:57:12.600Z,999.90
2018-12-01T23:59:40.478Z,999.90
